createdAt,value
2023-03-20T00:02:27.805Z,100.00
2023-03-20T00:04:56.494Z,100.00
2023-03-20T00:07:24.756Z,100.00
2023-03-20T00:09:53.541Z,100.00
2023-03-20T00:12:27.440Z,100.00
2023-03-20T00:14:56.233Z,100.00
2023-03-20T00:17:24.429Z,100.00
2023-03-20T00:19:52.681Z,100.00
2023-03-20T00:22:20.885Z,100.00
2023-03-20T00:24:49.690Z,100.00
2023-03-20T00:27:19.574Z,100.00
2023-03-20T00:29:49.363Z,100.00
2023-03-20T00:32:18.563Z,100.00
2023-03-20T00:34:47.004Z,100.00
2023-03-20T00:37:15.741Z,100.00
2023-03-20T00:39:44.576Z,100.00
2023-03-20T00:42:21.413Z,100.00
2023-03-20T00:44:54.169Z,100.00
2023-03-20T00:47:28.140Z,100.00
2023-03-20T00:49:58.156Z,100.00
2023-03-20T00:52:26.517Z,100.00
2023-03-20T00:54:55.169Z,100.00
2023-03-20T00:57:27.316Z,100.00
2023-03-20T01:00:01.511Z,100.00
2023-03-20T01:02:31.414Z,100.00
2023-03-20T01:05:00.912Z,100.00
2023-03-20T01:07:29.654Z,100.00
2023-03-20T01:09:57.955Z,100.00
2023-03-20T01:12:26.752Z,100.00
2023-03-20T01:14:59.529Z,100.00
2023-03-20T01:17:30.164Z,100.00
2023-03-20T01:19:58.679Z,100.00
2023-03-20T01:22:27.262Z,100.00
2023-03-20T01:24:55.900Z,100.00
2023-03-20T01:27:24.423Z,100.00
2023-03-20T01:29:52.614Z,100.00
2023-03-20T01:32:22.234Z,100.00
2023-03-20T01:34:51.494Z,100.00
2023-03-20T01:37:25.521Z,100.00
2023-03-20T01:39:54.171Z,100.00
2023-03-20T01:42:22.750Z,100.00
2023-03-20T01:44:51.416Z,100.00
2023-03-20T01:47:23.679Z,100.00
2023-03-20T01:50:22.654Z,100.00
2023-03-20T01:52:53.922Z,100.00
2023-03-20T01:55:23.129Z,100.00
2023-03-20T01:57:56.587Z,100.00
2023-03-20T02:00:25.118Z,100.00
2023-03-20T02:02:56.224Z,100.00
2023-03-20T02:05:25.256Z,100.00
2023-03-20T02:08:04.077Z,100.00
2023-03-20T02:10:32.873Z,100.00
2023-03-20T02:13:04.786Z,100.00
2023-03-20T02:15:33.948Z,100.00
2023-03-20T02:18:04.342Z,100.00
2023-03-20T02:20:47.456Z,100.00
2023-03-20T02:23:48.762Z,100.00
2023-03-20T02:26:53.604Z,100.00
2023-03-20T02:29:54.979Z,100.00
2023-03-20T02:33:08.844Z,100.00
2023-03-20T02:36:22.500Z,100.00
2023-03-20T02:39:21.314Z,100.00
2023-03-20T02:41:55.914Z,100.00
2023-03-20T02:44:33.197Z,100.00
2023-03-20T02:47:05.544Z,100.00
2023-03-20T02:49:51.832Z,100.00
2023-03-20T02:52:27.476Z,100.00
2023-03-20T02:55:07.585Z,100.00
2023-03-20T02:57:44.975Z,100.00
2023-03-20T03:00:17.245Z,100.00
2023-03-20T03:02:52.426Z,100.00
2023-03-20T03:05:24.129Z,100.00
2023-03-20T03:07:57.425Z,100.00
2023-03-20T03:10:30.509Z,100.00
2023-03-20T03:13:02.400Z,100.00
2023-03-20T03:15:35.156Z,100.00
2023-03-20T03:18:06.604Z,100.00
2023-03-20T03:20:37.751Z,100.00
2023-03-20T03:23:07.464Z,100.00
2023-03-20T03:25:41.888Z,100.00
2023-03-20T03:28:22.655Z,100.00
2023-03-20T03:30:53.910Z,100.00
2023-03-20T03:33:25.387Z,100.00
2023-03-20T03:36:03.795Z,100.00
2023-03-20T03:38:39.202Z,100.00
2023-03-20T03:41:21.134Z,100.00
2023-03-20T03:43:59.212Z,100.00
2023-03-20T03:46:36.584Z,100.00
2023-03-20T03:49:07.259Z,100.00
2023-03-20T03:51:40.938Z,100.00
2023-03-20T03:54:12.650Z,100.00
2023-03-20T03:56:46.297Z,100.00
2023-03-20T03:59:21.139Z,100.00
2023-03-20T04:01:53.677Z,100.00
2023-03-20T04:04:23.648Z,100.00
2023-03-20T04:06:52.320Z,100.00
2023-03-20T04:09:21.235Z,100.00
2023-03-20T04:11:53.291Z,100.00
2023-03-20T04:14:22.089Z,100.00
2023-03-20T04:16:50.423Z,100.00
2023-03-20T04:19:18.736Z,100.00
2023-03-20T04:21:47.258Z,100.00
2023-03-20T04:24:15.615Z,100.00
2023-03-20T04:26:44.162Z,100.00
2023-03-20T04:29:14.419Z,100.00
2023-03-20T04:31:42.669Z,100.00
2023-03-20T04:34:11.658Z,100.00
2023-03-20T04:36:40.047Z,100.00
2023-03-20T04:39:08.328Z,100.00
2023-03-20T04:41:36.555Z,100.00
2023-03-20T04:44:05.103Z,100.00
2023-03-20T04:46:35.063Z,100.00
2023-03-20T04:49:04.353Z,100.00
2023-03-20T04:51:33.110Z,100.00
2023-03-20T04:54:01.908Z,100.00
2023-03-20T04:56:30.602Z,100.00
2023-03-20T04:58:58.882Z,100.00
2023-03-20T05:01:27.476Z,100.00
2023-03-20T05:04:01.092Z,100.00
2023-03-20T05:06:29.955Z,100.00
2023-03-20T05:08:59.272Z,100.00
2023-03-20T05:11:27.911Z,100.00
2023-03-20T05:13:56.906Z,100.00
2023-03-20T05:16:25.935Z,100.00
2023-03-20T05:18:55.198Z,100.00
2023-03-20T05:21:25.212Z,100.00
2023-03-20T05:23:54.161Z,100.00
2023-03-20T05:26:23.237Z,100.00
2023-03-20T05:28:52.324Z,100.00
2023-03-20T05:31:21.127Z,100.00
2023-03-20T05:33:49.498Z,100.00
2023-03-20T05:36:18.297Z,100.00
2023-03-20T05:38:48.696Z,100.00
2023-03-20T05:41:17.807Z,100.00
2023-03-20T05:43:46.507Z,100.00
2023-03-20T05:46:14.956Z,100.00
2023-03-20T05:48:43.434Z,100.00
2023-03-20T05:51:12.118Z,100.00
2023-03-20T05:53:40.734Z,100.00
2023-03-20T05:56:12.094Z,100.00
2023-03-20T05:58:41.107Z,100.00
2023-03-20T06:01:10.218Z,100.00
2023-03-20T06:03:38.669Z,100.00
2023-03-20T06:06:07.957Z,100.00
2023-03-20T06:08:36.764Z,100.00
2023-03-20T06:11:05.285Z,100.00
2023-03-20T06:13:35.688Z,100.00
2023-03-20T06:16:05.475Z,100.00
2023-03-20T06:18:34.016Z,100.00
2023-03-20T06:21:03.131Z,100.00
2023-03-20T06:23:31.779Z,100.00
2023-03-20T06:26:00.341Z,100.00
2023-03-20T06:28:28.786Z,100.00
2023-03-20T06:31:01.357Z,100.00
2023-03-20T06:33:30.012Z,100.00
2023-03-20T06:35:59.202Z,100.00
2023-03-20T06:38:27.922Z,100.00
2023-03-20T06:40:56.394Z,100.00
2023-03-20T06:43:25.262Z,100.00
2023-03-20T06:45:54.112Z,100.00
2023-03-20T06:48:23.803Z,100.00
2023-03-20T06:50:53.150Z,100.00
2023-03-20T06:53:23.009Z,100.00
2023-03-20T06:55:52.232Z,100.00
2023-03-20T06:58:21.026Z,100.00
2023-03-20T07:00:49.465Z,100.00
2023-03-20T07:03:18.499Z,100.00
2023-03-20T07:05:49.040Z,100.00
2023-03-20T07:08:17.803Z,100.00
2023-03-20T07:10:46.699Z,100.00
2023-03-20T07:13:15.508Z,100.00
2023-03-20T07:16:01.236Z,100.00
2023-03-20T07:18:32.551Z,100.00
2023-03-20T07:21:05.957Z,100.00
2023-03-20T07:23:35.923Z,100.00
2023-03-20T07:26:05.892Z,100.00
2023-03-20T07:28:34.171Z,100.00
2023-03-20T07:31:03.548Z,100.00
2023-03-20T07:33:33.334Z,100.00
2023-03-20T07:36:03.139Z,100.00
2023-03-20T07:38:33.094Z,100.00
2023-03-20T07:41:01.845Z,100.00
2023-03-20T07:43:30.375Z,100.00
2023-03-20T07:45:59.784Z,100.00
2023-03-20T07:48:28.359Z,100.00
2023-03-20T07:50:57.046Z,100.00
2023-03-20T07:53:26.702Z,100.00
2023-03-20T07:55:55.198Z,100.00
2023-03-20T07:58:23.771Z,100.00
2023-03-20T08:00:52.365Z,100.00
2023-03-20T08:03:21.048Z,100.00
2023-03-20T08:05:50.252Z,100.00
2023-03-20T08:08:19.444Z,100.00
2023-03-20T08:10:49.571Z,100.00
2023-03-20T08:13:17.922Z,100.00
2023-03-20T08:15:48.139Z,100.00
2023-03-20T08:18:16.431Z,100.00
2023-03-20T08:20:44.917Z,100.00
2023-03-20T08:23:13.552Z,100.00
2023-03-20T08:25:42.304Z,100.00
2023-03-20T08:28:12.025Z,100.00
2023-03-20T08:30:40.330Z,100.00
2023-03-20T08:33:08.753Z,100.00
2023-03-20T08:35:37.477Z,100.00
2023-03-20T08:38:06.446Z,100.00
2023-03-20T08:40:35.019Z,100.00
2023-03-20T08:43:03.947Z,100.00
2023-03-20T08:45:33.733Z,100.00
2023-03-20T08:48:02.052Z,100.00
2023-03-20T08:50:30.355Z,100.00
2023-03-20T08:52:59.028Z,100.00
2023-03-20T08:55:27.444Z,100.00
2023-03-20T08:57:57.673Z,100.00
2023-03-20T09:00:27.899Z,100.00
2023-03-20T09:02:57.809Z,100.00
2023-03-20T09:05:26.205Z,100.00
2023-03-20T09:07:55.989Z,100.00
2023-03-20T09:10:24.255Z,100.00
2023-03-20T09:12:52.818Z,100.00
2023-03-20T09:15:21.714Z,100.00
2023-03-20T09:17:50.078Z,100.00
2023-03-20T09:20:19.848Z,100.00
2023-03-20T09:22:48.030Z,100.00
2023-03-20T09:25:16.960Z,100.00
2023-03-20T09:27:45.675Z,100.00
2023-03-20T09:30:15.122Z,100.00
2023-03-20T09:32:43.622Z,100.00
2023-03-20T09:35:11.958Z,100.00
2023-03-20T09:37:41.635Z,100.00
2023-03-20T09:40:20.295Z,100.00
2023-03-20T09:42:54.306Z,100.00
2023-03-20T09:45:26.944Z,100.00
2023-03-20T09:48:04.520Z,100.00
2023-03-20T09:50:37.846Z,100.00
2023-03-20T09:53:13.042Z,100.00
2023-03-20T09:55:43.172Z,100.00
2023-03-20T09:58:16.493Z,100.00
2023-03-20T10:00:47.777Z,100.00
2023-03-20T10:03:22.718Z,100.00
2023-03-20T10:05:57.504Z,100.00
2023-03-20T10:08:32.058Z,100.00
2023-03-20T10:11:13.278Z,100.00
2023-03-20T10:13:56.151Z,100.00
2023-03-20T10:16:41.170Z,100.00
2023-03-20T10:19:19.128Z,100.00
2023-03-20T10:21:50.532Z,100.00
2023-03-20T10:24:23.991Z,100.00
2023-03-20T10:26:54.670Z,100.00
2023-03-20T10:29:31.691Z,100.00
2023-03-20T10:32:07.560Z,100.00
2023-03-20T10:34:55.419Z,100.00
2023-03-20T10:37:39.674Z,100.00
2023-03-20T10:40:28.223Z,100.00
2023-03-20T10:43:00.950Z,100.00
2023-03-20T10:45:37.039Z,100.00
2023-03-20T10:48:14.702Z,100.00
2023-03-20T10:50:47.171Z,100.00
2023-03-20T10:53:28.051Z,100.00
2023-03-20T10:56:05.595Z,100.00
2023-03-20T10:58:38.789Z,100.00
2023-03-20T11:01:08.445Z,100.00
2023-03-20T11:03:40.049Z,100.00
2023-03-20T11:06:17.772Z,100.00
2023-03-20T11:08:53.160Z,100.00
2023-03-20T11:11:29.007Z,100.00
2023-03-20T11:14:00.216Z,100.00
2023-03-20T11:16:34.505Z,100.00
2023-03-20T11:19:09.090Z,100.00
2023-03-20T11:21:47.122Z,100.00
2023-03-20T11:24:27.758Z,100.00
2023-03-20T11:27:09.647Z,100.00
2023-03-20T11:29:39.271Z,100.00
2023-03-20T11:32:19.650Z,100.00
2023-03-20T11:34:52.615Z,100.00
2023-03-20T11:37:25.923Z,100.00
2023-03-20T11:40:02.842Z,99.82
2023-03-20T11:42:34.395Z,100.00
2023-03-20T11:45:05.999Z,100.00
2023-03-20T11:47:36.849Z,100.00
2023-03-20T11:50:07.826Z,100.00
2023-03-20T11:52:39.340Z,100.00
2023-03-20T11:55:25.134Z,100.00
2023-03-20T11:57:59.739Z,100.00
2023-03-20T12:00:31.868Z,100.00
2023-03-20T12:03:00.424Z,97.71
2023-03-20T12:05:36.119Z,100.00
2023-03-20T12:08:11.120Z,100.00
2023-03-20T12:10:43.305Z,100.00
2023-03-20T12:13:19.209Z,100.00
2023-03-20T12:15:53.148Z,100.00
2023-03-20T12:18:30.224Z,96.39
2023-03-20T12:21:08.786Z,99.79
2023-03-20T12:23:42.188Z,100.00
2023-03-20T12:26:14.523Z,100.00
2023-03-20T12:28:52.007Z,100.00
2023-03-20T12:31:28.584Z,98.65
2023-03-20T12:34:04.608Z,100.00
2023-03-20T12:36:36.370Z,100.00
2023-03-20T12:39:08.319Z,100.00
2023-03-20T12:41:48.676Z,100.00
2023-03-20T12:44:39.467Z,100.00
2023-03-20T12:47:27.621Z,100.00
2023-03-20T12:50:05.446Z,100.00
2023-03-20T12:52:46.199Z,100.00
2023-03-20T12:55:27.246Z,100.00
2023-03-20T12:58:13.498Z,100.00
2023-03-20T13:00:50.430Z,100.00
2023-03-20T13:03:35.457Z,100.00
2023-03-20T13:06:12.044Z,100.00
2023-03-20T13:09:06.942Z,100.00
2023-03-20T13:11:44.904Z,100.00
2023-03-20T13:14:22.732Z,100.00
2023-03-20T13:16:59.558Z,100.00
2023-03-20T13:19:35.577Z,100.00
2023-03-20T13:22:12.020Z,100.00
2023-03-20T13:24:46.038Z,100.00
2023-03-20T13:27:32.588Z,100.00
2023-03-20T13:30:08.915Z,100.00
2023-03-20T13:32:52.723Z,100.00
2023-03-20T13:35:37.264Z,100.00
2023-03-20T13:38:13.555Z,100.00
2023-03-20T13:40:44.913Z,100.00
2023-03-20T13:43:25.608Z,100.00
2023-03-20T13:45:58.527Z,100.00
2023-03-20T13:48:33.547Z,100.00
2023-03-20T13:51:11.987Z,100.00
2023-03-20T13:53:51.551Z,100.00
2023-03-20T13:56:33.849Z,100.00
2023-03-20T13:59:33.477Z,97.92
2023-03-20T14:02:13.585Z,95.52
2023-03-20T14:04:44.797Z,98.22
2023-03-20T14:07:30.936Z,100.00
2023-03-20T14:09:59.321Z,100.00
2023-03-20T14:12:33.560Z,97.63
2023-03-20T14:15:02.299Z,96.91
2023-03-20T14:17:32.566Z,94.36
2023-03-20T14:20:14.248Z,95.55
2023-03-20T14:22:43.545Z,95.30
2023-03-20T14:25:21.028Z,100.00
2023-03-20T14:28:00.728Z,100.00
2023-03-20T14:30:50.266Z,94.74
2023-03-20T14:33:33.224Z,93.78
2023-03-20T14:36:23.809Z,96.37
2023-03-20T14:39:16.255Z,96.19
2023-03-20T14:42:06.004Z,96.55
2023-03-20T14:44:49.728Z,95.33
2023-03-20T14:47:28.337Z,98.14
2023-03-20T14:50:03.844Z,100.00
2023-03-20T14:52:44.641Z,100.00
2023-03-20T14:55:32.333Z,100.00
2023-03-20T14:58:05.006Z,100.00
2023-03-20T15:00:37.787Z,100.00
2023-03-20T15:03:09.662Z,100.00
2023-03-20T15:05:40.732Z,100.00
2023-03-20T15:08:15.218Z,100.00
2023-03-20T15:10:51.017Z,100.00
2023-03-20T15:13:20.676Z,100.00
2023-03-20T15:15:57.909Z,100.00
2023-03-20T15:18:28.819Z,100.00
2023-03-20T15:20:58.375Z,100.00
2023-03-20T15:23:28.127Z,100.00
2023-03-20T15:25:56.825Z,100.00
2023-03-20T15:28:26.985Z,100.00
2023-03-20T15:30:59.467Z,100.00
2023-03-20T15:33:30.552Z,100.00
2023-03-20T15:36:00.343Z,100.00
2023-03-20T15:38:35.611Z,100.00
2023-03-20T15:41:06.799Z,100.00
2023-03-20T15:43:38.316Z,100.00
2023-03-20T15:46:18.099Z,100.00
2023-03-20T15:48:50.746Z,100.00
2023-03-20T15:51:20.136Z,100.00
2023-03-20T15:53:51.106Z,100.00
2023-03-20T15:56:21.520Z,100.00
2023-03-20T15:58:54.056Z,100.00
2023-03-20T16:01:25.173Z,100.00
2023-03-20T16:03:59.026Z,100.00
2023-03-20T16:06:29.499Z,100.00
2023-03-20T16:09:01.154Z,100.00
2023-03-20T16:11:39.481Z,100.00
2023-03-20T16:14:09.959Z,100.00
2023-03-20T16:16:38.678Z,100.00
2023-03-20T16:19:08.719Z,100.00
2023-03-20T16:21:41.900Z,100.00
2023-03-20T16:24:19.328Z,100.00
2023-03-20T16:26:51.693Z,100.00
2023-03-20T16:29:22.086Z,100.00
2023-03-20T16:31:55.894Z,100.00
2023-03-20T16:34:27.137Z,100.00
2023-03-20T16:36:58.935Z,100.00
2023-03-20T16:39:30.883Z,100.00
2023-03-20T16:42:25.673Z,100.00
2023-03-20T16:44:57.200Z,100.00
2023-03-20T16:47:34.509Z,100.00
2023-03-20T16:50:18.373Z,100.00
2023-03-20T16:52:51.245Z,100.00
2023-03-20T16:55:28.374Z,100.00
2023-03-20T16:58:00.288Z,100.00
2023-03-20T17:00:34.193Z,100.00
2023-03-20T17:03:11.250Z,100.00
2023-03-20T17:05:51.654Z,100.00
2023-03-20T17:08:34.151Z,100.00
2023-03-20T17:11:07.234Z,100.00
2023-03-20T17:13:36.100Z,100.00
2023-03-20T17:16:04.728Z,100.00
2023-03-20T17:18:33.722Z,100.00
2023-03-20T17:21:04.094Z,100.00
2023-03-20T17:23:34.660Z,100.00
2023-03-20T17:26:06.955Z,100.00
2023-03-20T17:28:39.090Z,100.00
2023-03-20T17:31:10.571Z,100.00
2023-03-20T17:33:39.854Z,100.00
2023-03-20T17:36:16.356Z,100.00
2023-03-20T17:38:47.196Z,100.00
2023-03-20T17:41:18.426Z,100.00
2023-03-20T17:43:47.437Z,100.00
2023-03-20T17:46:19.575Z,100.00
2023-03-20T17:48:48.903Z,100.00
2023-03-20T17:51:17.584Z,100.00
2023-03-20T17:53:46.172Z,100.00
2023-03-20T17:56:17.830Z,100.00
2023-03-20T17:58:46.124Z,100.00
2023-03-20T18:01:16.198Z,100.00
2023-03-20T18:03:45.232Z,100.00
2023-03-20T18:06:21.908Z,100.00
2023-03-20T18:08:50.597Z,100.00
2023-03-20T18:11:21.187Z,100.00
2023-03-20T18:13:51.390Z,100.00
2023-03-20T18:16:23.065Z,100.00
2023-03-20T18:18:52.921Z,100.00
2023-03-20T18:21:21.830Z,100.00
2023-03-20T18:23:50.810Z,100.00
2023-03-20T18:26:22.869Z,100.00
2023-03-20T18:28:53.741Z,100.00
2023-03-20T18:31:23.682Z,100.00
2023-03-20T18:33:56.420Z,100.00
2023-03-20T18:36:26.243Z,100.00
2023-03-20T18:38:55.619Z,100.00
2023-03-20T18:41:25.812Z,100.00
2023-03-20T18:43:55.741Z,100.00
2023-03-20T18:46:26.488Z,100.00
2023-03-20T18:48:55.550Z,100.00
2023-03-20T18:51:25.651Z,100.00
2023-03-20T18:57:45.379Z,100.00
2023-03-20T19:00:21.661Z,100.00
2023-03-20T19:02:50.913Z,100.00
2023-03-20T19:05:20.822Z,100.00
2023-03-20T19:07:50.650Z,100.00
2023-03-20T19:10:29.895Z,100.00
2023-03-20T19:13:02.444Z,100.00
2023-03-20T19:15:35.745Z,100.00
2023-03-20T19:18:05.022Z,100.00
2023-03-20T19:20:36.864Z,100.00
2023-03-20T19:23:07.330Z,100.00
2023-03-20T19:25:36.546Z,100.00
2023-03-20T19:28:07.754Z,100.00
2023-03-20T19:30:39.704Z,100.00
2023-03-20T19:33:09.512Z,100.00
2023-03-20T19:35:58.817Z,100.00
2023-03-20T19:38:28.627Z,100.00
2023-03-20T19:41:01.987Z,100.00
2023-03-20T19:43:32.408Z,100.00
2023-03-20T19:46:01.632Z,100.00
2023-03-20T19:48:46.956Z,100.00
2023-03-20T19:51:23.807Z,100.00
2023-03-20T19:53:54.570Z,100.00
2023-03-20T19:56:24.734Z,100.00
2023-03-20T19:58:55.625Z,100.00
2023-03-20T20:01:27.305Z,100.00
2023-03-20T20:03:58.056Z,100.00
2023-03-20T20:06:31.113Z,100.00
2023-03-20T20:09:01.589Z,100.00
2023-03-20T20:11:35.471Z,100.00
2023-03-20T20:14:10.568Z,100.00
2023-03-20T20:16:43.327Z,100.00
2023-03-20T20:19:13.598Z,100.00
2023-03-20T20:22:19.663Z,100.00
2023-03-20T20:24:34.986Z,100.00
2023-03-20T20:27:17.237Z,100.00
2023-03-20T20:29:50.813Z,100.00
2023-03-20T20:32:21.862Z,100.00
2023-03-20T20:40:31.179Z,100.00
2023-03-20T20:43:02.610Z,100.00
2023-03-20T20:45:33.724Z,100.00
2023-03-20T20:48:04.220Z,100.00
2023-03-20T20:50:39.541Z,100.00
2023-03-20T20:53:09.176Z,100.00
2023-03-20T20:55:38.274Z,100.00
2023-03-20T20:58:09.370Z,100.00
2023-03-20T21:00:51.247Z,100.00
2023-03-20T21:03:22.795Z,100.00
2023-03-20T21:05:51.509Z,100.00
2023-03-20T21:08:21.302Z,100.00
2023-03-20T21:10:51.112Z,100.00
2023-03-20T21:13:20.542Z,100.00
2023-03-20T21:15:58.978Z,100.00
2023-03-20T21:18:29.700Z,100.00
2023-03-20T21:21:05.839Z,100.00
2023-03-20T21:23:34.378Z,100.00
2023-03-20T21:26:03.034Z,100.00
2023-03-20T21:28:32.031Z,100.00
2023-03-20T21:31:23.224Z,100.00
2023-03-20T21:33:56.130Z,100.00
2023-03-20T21:36:24.885Z,100.00
2023-03-20T21:39:09.778Z,100.00
2023-03-20T21:41:39.600Z,100.00
2023-03-20T21:44:16.785Z,100.00
2023-03-20T22:01:41.967Z,100.00
2023-03-20T22:04:45.012Z,100.00
2023-03-20T22:12:54.206Z,100.00
2023-03-20T22:18:19.463Z,100.00
2023-03-20T22:24:12.555Z,100.00
2023-03-20T22:41:39.376Z,100.00
2023-03-20T22:44:13.690Z,100.00
2023-03-20T22:46:22.640Z,100.00
2023-03-20T22:48:52.399Z,100.00
2023-03-20T22:51:28.639Z,100.00
2023-03-20T22:54:02.881Z,100.00
2023-03-20T22:56:31.067Z,100.00
2023-03-20T22:58:59.361Z,100.00
2023-03-20T23:01:27.998Z,100.00
2023-03-20T23:03:56.188Z,100.00
2023-03-20T23:06:26.457Z,100.00
2023-03-20T23:08:58.417Z,100.00
2023-03-20T23:11:29.842Z,100.00
2023-03-20T23:13:58.469Z,100.00
2023-03-20T23:16:26.761Z,100.00
2023-03-20T23:18:55.102Z,100.00
2023-03-20T23:21:23.545Z,100.00
2023-03-20T23:23:51.967Z,100.00
2023-03-20T23:26:22.202Z,100.00
2023-03-20T23:28:53.491Z,100.00
2023-03-20T23:31:24.113Z,100.00
2023-03-20T23:33:55.024Z,100.00
2023-03-20T23:36:35.295Z,100.00
2023-03-20T23:39:05.500Z,100.00
2023-03-20T23:42:04.702Z,100.00
2023-03-20T23:44:24.076Z,100.00
2023-03-20T23:46:52.373Z,100.00
2023-03-20T23:49:20.831Z,100.00
2023-03-20T23:51:49.054Z,100.00
2023-03-20T23:54:17.352Z,100.00
2023-03-20T23:56:45.916Z,100.00
2023-03-20T23:59:21.552Z,100.00
